sensor_id;sensor_type;location;lat;lon;timestamp;P1;durP1;ratioP1;P2;durP2;ratioP2
11255;SDS011;5685;52.384;13.420;2023-04-24T00:02:15;72.33;;;41.03;;
11255;SDS011;5685;52.384;13.420;2023-04-24T00:05:20;71.80;;;40.77;;
11255;SDS011;5685;52.384;13.420;2023-04-24T00:08:23;72.03;;;40.93;;
11255;SDS011;5685;52.384;13.420;2023-04-24T00:11:25;72.33;;;41.03;;
11255;SDS011;5685;52.384;13.420;2023-04-24T00:14:28;72.23;;;40.90;;
11255;SDS011;5685;52.384;13.420;2023-04-24T00:17:31;72.67;;;40.93;;
11255;SDS011;5685;52.384;13.420;2023-04-24T00:20:35;72.03;;;40.70;;
11255;SDS011;5685;52.384;13.420;2023-04-24T00:23:37;72.23;;;40.90;;
11255;SDS011;5685;52.384;13.420;2023-04-24T00:26:40;72.77;;;41.10;;
11255;SDS011;5685;52.384;13.420;2023-04-24T00:29:42;72.23;;;40.87;;
11255;SDS011;5685;52.384;13.420;2023-04-24T00:32:45;72.77;;;41.13;;
11255;SDS011;5685;52.384;13.420;2023-04-24T00:35:50;72.20;;;40.93;;
11255;SDS011;5685;52.384;13.420;2023-04-24T00:38:52;72.00;;;40.77;;
11255;SDS011;5685;52.384;13.420;2023-04-24T00:41:55;72.67;;;41.10;;
11255;SDS011;5685;52.384;13.420;2023-04-24T00:44:58;72.37;;;41.00;;
11255;SDS011;5685;52.384;13.420;2023-04-24T00:48:01;72.27;;;40.90;;
11255;SDS011;5685;52.384;13.420;2023-04-24T00:51:05;72.37;;;40.97;;
11255;SDS011;5685;52.384;13.420;2023-04-24T00:54:08;72.23;;;40.80;;
11255;SDS011;5685;52.384;13.420;2023-04-24T00:57:11;72.10;;;40.70;;
11255;SDS011;5685;52.384;13.420;2023-04-24T01:00:15;72.60;;;41.00;;
11255;SDS011;5685;52.384;13.420;2023-04-24T01:03:18;72.80;;;41.10;;
11255;SDS011;5685;52.384;13.420;2023-04-24T01:06:24;72.80;;;41.03;;
11255;SDS011;5685;52.384;13.420;2023-04-24T01:09:31;72.60;;;41.10;;
11255;SDS011;5685;52.384;13.420;2023-04-24T01:12:33;72.20;;;40.73;;
11255;SDS011;5685;52.384;13.420;2023-04-24T01:15:36;72.27;;;40.83;;
11255;SDS011;5685;52.384;13.420;2023-04-24T01:18:39;72.87;;;41.10;;
11255;SDS011;5685;52.384;13.420;2023-04-24T01:21:44;72.40;;;40.87;;
11255;SDS011;5685;52.384;13.420;2023-04-24T01:24:49;72.63;;;40.93;;
11255;SDS011;5685;52.384;13.420;2023-04-24T01:27:52;72.40;;;40.70;;
11255;SDS011;5685;52.384;13.420;2023-04-24T01:30:54;72.20;;;40.80;;
11255;SDS011;5685;52.384;13.420;2023-04-24T01:33:58;72.80;;;40.97;;
11255;SDS011;5685;52.384;13.420;2023-04-24T01:37:00;73.50;;;41.20;;
11255;SDS011;5685;52.384;13.420;2023-04-24T01:40:05;72.80;;;40.97;;
11255;SDS011;5685;52.384;13.420;2023-04-24T01:43:08;72.57;;;40.87;;
11255;SDS011;5685;52.384;13.420;2023-04-24T01:46:11;72.47;;;40.90;;
11255;SDS011;5685;52.384;13.420;2023-04-24T01:49:14;72.70;;;40.87;;
11255;SDS011;5685;52.384;13.420;2023-04-24T01:52:17;72.43;;;40.90;;
11255;SDS011;5685;52.384;13.420;2023-04-24T01:55:21;72.67;;;40.93;;
11255;SDS011;5685;52.384;13.420;2023-04-24T01:58:23;72.77;;;41.03;;
11255;SDS011;5685;52.384;13.420;2023-04-24T02:01:26;72.63;;;40.73;;
11255;SDS011;5685;52.384;13.420;2023-04-24T02:04:31;72.83;;;40.93;;
11255;SDS011;5685;52.384;13.420;2023-04-24T02:07:33;72.47;;;40.80;;
11255;SDS011;5685;52.384;13.420;2023-04-24T02:10:37;73.03;;;41.00;;
11255;SDS011;5685;52.384;13.420;2023-04-24T02:13:40;72.37;;;40.60;;
11255;SDS011;5685;52.384;13.420;2023-04-24T02:16:43;72.50;;;40.77;;
11255;SDS011;5685;52.384;13.420;2023-04-24T02:19:46;72.43;;;40.80;;
11255;SDS011;5685;52.384;13.420;2023-04-24T02:22:48;72.50;;;40.77;;
11255;SDS011;5685;52.384;13.420;2023-04-24T02:25:53;72.40;;;40.67;;
11255;SDS011;5685;52.384;13.420;2023-04-24T02:28:55;72.10;;;40.67;;
11255;SDS011;5685;52.384;13.420;2023-04-24T02:31:58;72.50;;;40.63;;
11255;SDS011;5685;52.384;13.420;2023-04-24T02:35:01;72.83;;;40.80;;
11255;SDS011;5685;52.384;13.420;2023-04-24T02:38:03;73.00;;;41.00;;
11255;SDS011;5685;52.384;13.420;2023-04-24T02:41:07;72.67;;;40.67;;
11255;SDS011;5685;52.384;13.420;2023-04-24T02:44:10;72.97;;;40.93;;
11255;SDS011;5685;52.384;13.420;2023-04-24T02:47:12;73.00;;;40.90;;
11255;SDS011;5685;52.384;13.420;2023-04-24T02:50:15;73.23;;;41.07;;
11255;SDS011;5685;52.384;13.420;2023-04-24T02:53:18;72.80;;;40.73;;
11255;SDS011;5685;52.384;13.420;2023-04-24T02:56:22;72.67;;;40.73;;
11255;SDS011;5685;52.384;13.420;2023-04-24T02:59:25;72.73;;;40.80;;
11255;SDS011;5685;52.384;13.420;2023-04-24T03:02:29;72.70;;;40.80;;
11255;SDS011;5685;52.384;13.420;2023-04-24T03:05:31;73.07;;;40.87;;
11255;SDS011;5685;52.384;13.420;2023-04-24T03:08:34;72.43;;;40.57;;
11255;SDS011;5685;52.384;13.420;2023-04-24T03:11:38;73.00;;;40.70;;
11255;SDS011;5685;52.384;13.420;2023-04-24T03:14:40;73.00;;;40.73;;
11255;SDS011;5685;52.384;13.420;2023-04-24T03:17:43;72.57;;;40.60;;
11255;SDS011;5685;52.384;13.420;2023-04-24T03:20:45;73.30;;;40.93;;
11255;SDS011;5685;52.384;13.420;2023-04-24T03:23:48;72.80;;;40.67;;
11255;SDS011;5685;52.384;13.420;2023-04-24T03:26:52;73.13;;;40.77;;
11255;SDS011;5685;52.384;13.420;2023-04-24T03:29:56;73.50;;;40.87;;
11255;SDS011;5685;52.384;13.420;2023-04-24T03:32:58;73.27;;;40.73;;
11255;SDS011;5685;52.384;13.420;2023-04-24T03:36:01;72.53;;;40.60;;
11255;SDS011;5685;52.384;13.420;2023-04-24T03:39:04;72.63;;;40.50;;
11255;SDS011;5685;52.384;13.420;2023-04-24T03:42:09;73.17;;;40.93;;
11255;SDS011;5685;52.384;13.420;2023-04-24T03:45:11;73.50;;;41.00;;
11255;SDS011;5685;52.384;13.420;2023-04-24T03:48:14;72.53;;;40.57;;
11255;SDS011;5685;52.384;13.420;2023-04-24T03:51:16;72.37;;;40.50;;
11255;SDS011;5685;52.384;13.420;2023-04-24T03:54:19;73.03;;;40.80;;
11255;SDS011;5685;52.384;13.420;2023-04-24T03:57:23;73.07;;;40.80;;
11255;SDS011;5685;52.384;13.420;2023-04-24T04:00:26;73.00;;;40.70;;
11255;SDS011;5685;52.384;13.420;2023-04-24T04:03:28;72.87;;;40.77;;
11255;SDS011;5685;52.384;13.420;2023-04-24T04:06:31;72.63;;;40.70;;
11255;SDS011;5685;52.384;13.420;2023-04-24T04:09:33;72.90;;;40.67;;
11255;SDS011;5685;52.384;13.420;2023-04-24T04:12:38;73.37;;;40.87;;
11255;SDS011;5685;52.384;13.420;2023-04-24T04:15:40;73.50;;;40.93;;
11255;SDS011;5685;52.384;13.420;2023-04-24T04:18:43;73.43;;;40.87;;
11255;SDS011;5685;52.384;13.420;2023-04-24T04:21:46;73.13;;;40.67;;
11255;SDS011;5685;52.384;13.420;2023-04-24T04:24:52;72.90;;;40.60;;
11255;SDS011;5685;52.384;13.420;2023-04-24T04:27:56;73.33;;;40.80;;
11255;SDS011;5685;52.384;13.420;2023-04-24T04:30:59;73.73;;;40.83;;
11255;SDS011;5685;52.384;13.420;2023-04-24T04:34:02;72.83;;;40.53;;
11255;SDS011;5685;52.384;13.420;2023-04-24T04:37:05;73.40;;;40.60;;
11255;SDS011;5685;52.384;13.420;2023-04-24T04:40:08;73.27;;;40.67;;
11255;SDS011;5685;52.384;13.420;2023-04-24T04:43:13;73.30;;;40.67;;
11255;SDS011;5685;52.384;13.420;2023-04-24T04:46:16;73.27;;;40.60;;
11255;SDS011;5685;52.384;13.420;2023-04-24T04:49:18;73.17;;;40.57;;
11255;SDS011;5685;52.384;13.420;2023-04-24T04:52:21;72.93;;;40.40;;
11255;SDS011;5685;52.384;13.420;2023-04-24T04:55:26;73.60;;;40.70;;
11255;SDS011;5685;52.384;13.420;2023-04-24T04:58:30;72.83;;;40.50;;
11255;SDS011;5685;52.384;13.420;2023-04-24T05:01:33;72.83;;;40.53;;
11255;SDS011;5685;52.384;13.420;2023-04-24T05:04:36;72.93;;;40.50;;
11255;SDS011;5685;52.384;13.420;2023-04-24T05:07:39;73.47;;;40.67;;
11255;SDS011;5685;52.384;13.420;2023-04-24T05:10:41;73.87;;;40.90;;
11255;SDS011;5685;52.384;13.420;2023-04-24T05:13:45;73.30;;;40.73;;
11255;SDS011;5685;52.384;13.420;2023-04-24T05:16:48;72.90;;;40.20;;
11255;SDS011;5685;52.384;13.420;2023-04-24T05:19:50;73.07;;;40.33;;
11255;SDS011;5685;52.384;13.420;2023-04-24T05:22:53;72.73;;;40.03;;
11255;SDS011;5685;52.384;13.420;2023-04-24T05:25:56;73.53;;;40.27;;
11255;SDS011;5685;52.384;13.420;2023-04-24T05:29:00;72.97;;;40.07;;
11255;SDS011;5685;52.384;13.420;2023-04-24T05:32:02;73.13;;;40.10;;
11255;SDS011;5685;52.384;13.420;2023-04-24T05:35:05;72.53;;;39.73;;
11255;SDS011;5685;52.384;13.420;2023-04-24T05:38:08;73.03;;;39.90;;
11255;SDS011;5685;52.384;13.420;2023-04-24T05:41:11;72.73;;;39.87;;
11255;SDS011;5685;52.384;13.420;2023-04-24T05:44:15;72.80;;;39.77;;
11255;SDS011;5685;52.384;13.420;2023-04-24T05:47:17;73.60;;;40.23;;
11255;SDS011;5685;52.384;13.420;2023-04-24T05:50:21;73.17;;;40.17;;
11255;SDS011;5685;52.384;13.420;2023-04-24T05:53:24;73.97;;;40.33;;
11255;SDS011;5685;52.384;13.420;2023-04-24T05:56:27;73.17;;;40.10;;
11255;SDS011;5685;52.384;13.420;2023-04-24T05:59:31;73.90;;;40.43;;
11255;SDS011;5685;52.384;13.420;2023-04-24T06:02:33;73.17;;;40.13;;
11255;SDS011;5685;52.384;13.420;2023-04-24T06:05:36;73.40;;;40.27;;
11255;SDS011;5685;52.384;13.420;2023-04-24T06:08:38;73.73;;;40.33;;
11255;SDS011;5685;52.384;13.420;2023-04-24T06:11:42;72.80;;;40.00;;
11255;SDS011;5685;52.384;13.420;2023-04-24T06:14:47;73.70;;;40.40;;
11255;SDS011;5685;52.384;13.420;2023-04-24T06:17:49;74.03;;;40.50;;
11255;SDS011;5685;52.384;13.420;2023-04-24T06:20:52;72.93;;;39.97;;
11255;SDS011;5685;52.384;13.420;2023-04-24T06:23:55;73.33;;;40.30;;
11255;SDS011;5685;52.384;13.420;2023-04-24T06:26:58;73.90;;;40.50;;
11255;SDS011;5685;52.384;13.420;2023-04-24T06:30:03;73.97;;;40.57;;
11255;SDS011;5685;52.384;13.420;2023-04-24T06:33:06;73.73;;;40.33;;
11255;SDS011;5685;52.384;13.420;2023-04-24T06:36:09;73.43;;;40.20;;
11255;SDS011;5685;52.384;13.420;2023-04-24T06:39:11;73.87;;;40.43;;
11255;SDS011;5685;52.384;13.420;2023-04-24T06:42:14;74.07;;;40.33;;
11255;SDS011;5685;52.384;13.420;2023-04-24T06:45:18;73.30;;;40.20;;
11255;SDS011;5685;52.384;13.420;2023-04-24T06:48:21;73.23;;;40.13;;
11255;SDS011;5685;52.384;13.420;2023-04-24T06:51:24;73.00;;;40.00;;
11255;SDS011;5685;52.384;13.420;2023-04-24T06:54:27;73.17;;;40.00;;
11255;SDS011;5685;52.384;13.420;2023-04-24T06:57:29;73.77;;;40.33;;
11255;SDS011;5685;52.384;13.420;2023-04-24T07:00:34;73.80;;;40.30;;
11255;SDS011;5685;52.384;13.420;2023-04-24T07:03:37;73.77;;;40.33;;
11255;SDS011;5685;52.384;13.420;2023-04-24T07:06:40;73.97;;;40.43;;
11255;SDS011;5685;52.384;13.420;2023-04-24T07:09:42;73.37;;;40.17;;
11255;SDS011;5685;52.384;13.420;2023-04-24T07:12:45;73.90;;;40.30;;
11255;SDS011;5685;52.384;13.420;2023-04-24T07:15:49;73.40;;;40.10;;
11255;SDS011;5685;52.384;13.420;2023-04-24T07:18:54;73.00;;;39.97;;
11255;SDS011;5685;52.384;13.420;2023-04-24T07:21:56;73.47;;;40.20;;
11255;SDS011;5685;52.384;13.420;2023-04-24T07:24:59;73.13;;;39.93;;
11255;SDS011;5685;52.384;13.420;2023-04-24T07:28:02;73.50;;;40.00;;
11255;SDS011;5685;52.384;13.420;2023-04-24T07:31:06;73.50;;;40.00;;
11255;SDS011;5685;52.384;13.420;2023-04-24T07:34:09;73.53;;;40.17;;
11255;SDS011;5685;52.384;13.420;2023-04-24T07:37:12;73.77;;;40.33;;
11255;SDS011;5685;52.384;13.420;2023-04-24T07:40:14;73.87;;;40.23;;
11255;SDS011;5685;52.384;13.420;2023-04-24T07:43:19;73.63;;;40.30;;
11255;SDS011;5685;52.384;13.420;2023-04-24T07:46:25;73.70;;;40.37;;
11255;SDS011;5685;52.384;13.420;2023-04-24T07:49:29;74.07;;;40.47;;
11255;SDS011;5685;52.384;13.420;2023-04-24T07:52:34;74.23;;;40.60;;
11255;SDS011;5685;52.384;13.420;2023-04-24T07:55:36;73.70;;;40.30;;
11255;SDS011;5685;52.384;13.420;2023-04-24T07:58:39;74.20;;;40.57;;
11255;SDS011;5685;52.384;13.420;2023-04-24T08:01:44;74.07;;;40.30;;
11255;SDS011;5685;52.384;13.420;2023-04-24T08:04:46;73.73;;;40.27;;
11255;SDS011;5685;52.384;13.420;2023-04-24T08:07:49;74.20;;;40.43;;
11255;SDS011;5685;52.384;13.420;2023-04-24T08:10:52;74.17;;;40.47;;
11255;SDS011;5685;52.384;13.420;2023-04-24T08:13:55;73.93;;;40.33;;
11255;SDS011;5685;52.384;13.420;2023-04-24T08:16:59;74.47;;;40.60;;
11255;SDS011;5685;52.384;13.420;2023-04-24T08:20:03;74.23;;;40.40;;
11255;SDS011;5685;52.384;13.420;2023-04-24T08:23:10;73.97;;;40.23;;
11255;SDS011;5685;52.384;13.420;2023-04-24T08:26:13;73.63;;;40.30;;
11255;SDS011;5685;52.384;13.420;2023-04-24T08:29:15;73.77;;;40.20;;
11255;SDS011;5685;52.384;13.420;2023-04-24T08:32:19;74.27;;;40.40;;
11255;SDS011;5685;52.384;13.420;2023-04-24T08:35:22;73.87;;;40.30;;
11255;SDS011;5685;52.384;13.420;2023-04-24T08:38:25;73.57;;;40.33;;
11255;SDS011;5685;52.384;13.420;2023-04-24T08:41:27;74.10;;;40.20;;
11255;SDS011;5685;52.384;13.420;2023-04-24T08:44:30;73.87;;;40.20;;
11255;SDS011;5685;52.384;13.420;2023-04-24T08:47:34;74.40;;;40.33;;
11255;SDS011;5685;52.384;13.420;2023-04-24T08:50:37;74.20;;;40.43;;
11255;SDS011;5685;52.384;13.420;2023-04-24T08:53:42;74.83;;;40.60;;
11255;SDS011;5685;52.384;13.420;2023-04-24T08:56:45;74.90;;;40.70;;
11255;SDS011;5685;52.384;13.420;2023-04-24T08:59:50;74.23;;;40.40;;
11255;SDS011;5685;52.384;13.420;2023-04-24T09:02:54;74.63;;;40.60;;
11255;SDS011;5685;52.384;13.420;2023-04-24T09:05:57;74.70;;;40.60;;
11255;SDS011;5685;52.384;13.420;2023-04-24T09:09:00;74.97;;;40.73;;
11255;SDS011;5685;52.384;13.420;2023-04-24T09:12:03;74.30;;;40.40;;
11255;SDS011;5685;52.384;13.420;2023-04-24T09:15:07;74.60;;;40.50;;
11255;SDS011;5685;52.384;13.420;2023-04-24T09:18:12;74.07;;;40.20;;
11255;SDS011;5685;52.384;13.420;2023-04-24T09:21:15;74.40;;;40.40;;
11255;SDS011;5685;52.384;13.420;2023-04-24T09:24:18;75.00;;;40.53;;
11255;SDS011;5685;52.384;13.420;2023-04-24T09:27:23;74.50;;;40.40;;
11255;SDS011;5685;52.384;13.420;2023-04-24T09:30:26;74.50;;;40.47;;
11255;SDS011;5685;52.384;13.420;2023-04-24T09:33:30;75.07;;;40.67;;
11255;SDS011;5685;52.384;13.420;2023-04-24T09:36:33;74.40;;;40.50;;
11255;SDS011;5685;52.384;13.420;2023-04-24T09:40:07;75.10;;;40.60;;
11255;SDS011;5685;52.384;13.420;2023-04-24T09:43:13;74.70;;;40.50;;
11255;SDS011;5685;52.384;13.420;2023-04-24T09:46:16;75.13;;;40.60;;
11255;SDS011;5685;52.384;13.420;2023-04-24T09:49:23;74.63;;;40.43;;
11255;SDS011;5685;52.384;13.420;2023-04-24T09:52:27;74.70;;;40.53;;
11255;SDS011;5685;52.384;13.420;2023-04-24T09:55:29;75.10;;;40.60;;
11255;SDS011;5685;52.384;13.420;2023-04-24T09:58:32;75.30;;;40.63;;
11255;SDS011;5685;52.384;13.420;2023-04-24T10:01:35;74.50;;;40.47;;
11255;SDS011;5685;52.384;13.420;2023-04-24T10:04:53;74.80;;;40.57;;
11255;SDS011;5685;52.384;13.420;2023-04-24T10:07:57;74.87;;;40.63;;
11255;SDS011;5685;52.384;13.420;2023-04-24T10:11:02;73.80;;;40.17;;
11255;SDS011;5685;52.384;13.420;2023-04-24T10:14:05;74.60;;;40.60;;
11255;SDS011;5685;52.384;13.420;2023-04-24T10:17:07;74.67;;;40.57;;
11255;SDS011;5685;52.384;13.420;2023-04-24T10:20:12;74.60;;;40.60;;
11255;SDS011;5685;52.384;13.420;2023-04-24T10:23:14;74.93;;;40.57;;
11255;SDS011;5685;52.384;13.420;2023-04-24T10:26:19;74.70;;;40.53;;
11255;SDS011;5685;52.384;13.420;2023-04-24T10:29:22;75.13;;;40.70;;
11255;SDS011;5685;52.384;13.420;2023-04-24T10:32:25;75.00;;;40.67;;
11255;SDS011;5685;52.384;13.420;2023-04-24T10:35:31;74.30;;;40.67;;
11255;SDS011;5685;52.384;13.420;2023-04-24T10:38:36;75.17;;;40.73;;
11255;SDS011;5685;52.384;13.420;2023-04-24T10:41:40;74.63;;;40.50;;
11255;SDS011;5685;52.384;13.420;2023-04-24T10:44:42;74.97;;;40.63;;
11255;SDS011;5685;52.384;13.420;2023-04-24T10:47:50;75.03;;;40.70;;
11255;SDS011;5685;52.384;13.420;2023-04-24T10:51:04;75.83;;;40.93;;
11255;SDS011;5685;52.384;13.420;2023-04-24T10:54:21;74.50;;;40.47;;
11255;SDS011;5685;52.384;13.420;2023-04-24T10:57:27;74.43;;;40.57;;
11255;SDS011;5685;52.384;13.420;2023-04-24T11:00:31;75.13;;;40.80;;
11255;SDS011;5685;52.384;13.420;2023-04-24T11:03:34;75.23;;;40.70;;
11255;SDS011;5685;52.384;13.420;2023-04-24T11:06:39;74.80;;;40.77;;
11255;SDS011;5685;52.384;13.420;2023-04-24T11:09:43;74.57;;;40.57;;
11255;SDS011;5685;52.384;13.420;2023-04-24T11:12:45;74.60;;;40.50;;
11255;SDS011;5685;52.384;13.420;2023-04-24T11:15:59;75.93;;;40.97;;
11255;SDS011;5685;52.384;13.420;2023-04-24T11:19:18;75.17;;;40.70;;
11255;SDS011;5685;52.384;13.420;2023-04-24T11:22:30;75.70;;;40.77;;
11255;SDS011;5685;52.384;13.420;2023-04-24T11:25:36;75.50;;;40.80;;
11255;SDS011;5685;52.384;13.420;2023-04-24T11:28:44;76.07;;;41.00;;
11255;SDS011;5685;52.384;13.420;2023-04-24T11:31:47;76.37;;;41.00;;
11255;SDS011;5685;52.384;13.420;2023-04-24T11:34:51;75.80;;;40.67;;
11255;SDS011;5685;52.384;13.420;2023-04-24T11:37:56;75.83;;;40.77;;
11255;SDS011;5685;52.384;13.420;2023-04-24T11:41:02;76.27;;;41.00;;
11255;SDS011;5685;52.384;13.420;2023-04-24T11:44:06;75.97;;;40.70;;
11255;SDS011;5685;52.384;13.420;2023-04-24T11:47:09;76.37;;;40.90;;
11255;SDS011;5685;52.384;13.420;2023-04-24T11:50:12;76.30;;;40.90;;
11255;SDS011;5685;52.384;13.420;2023-04-24T11:53:19;76.70;;;41.00;;
11255;SDS011;5685;52.384;13.420;2023-04-24T11:56:22;76.33;;;40.87;;
11255;SDS011;5685;52.384;13.420;2023-04-24T11:59:25;77.10;;;41.10;;
11255;SDS011;5685;52.384;13.420;2023-04-24T12:02:28;76.77;;;41.17;;
11255;SDS011;5685;52.384;13.420;2023-04-24T12:05:31;76.67;;;41.10;;
11255;SDS011;5685;52.384;13.420;2023-04-24T12:08:36;76.73;;;41.07;;
11255;SDS011;5685;52.384;13.420;2023-04-24T12:11:39;76.73;;;41.07;;
11255;SDS011;5685;52.384;13.420;2023-04-24T12:14:55;76.83;;;41.00;;
11255;SDS011;5685;52.384;13.420;2023-04-24T12:17:58;76.80;;;41.03;;
11255;SDS011;5685;52.384;13.420;2023-04-24T12:21:19;76.73;;;41.00;;
11255;SDS011;5685;52.384;13.420;2023-04-24T12:24:25;76.53;;;40.97;;
11255;SDS011;5685;52.384;13.420;2023-04-24T12:27:31;75.70;;;40.70;;
11255;SDS011;5685;52.384;13.420;2023-04-24T12:30:34;75.63;;;40.80;;
11255;SDS011;5685;52.384;13.420;2023-04-24T12:33:40;76.20;;;41.00;;
11255;SDS011;5685;52.384;13.420;2023-04-24T12:36:43;76.40;;;40.97;;
11255;SDS011;5685;52.384;13.420;2023-04-24T12:43:14;76.97;;;41.03;;
11255;SDS011;5685;52.384;13.420;2023-04-24T12:46:17;76.93;;;41.17;;
11255;SDS011;5685;52.384;13.420;2023-04-24T12:49:20;76.77;;;41.17;;
11255;SDS011;5685;52.384;13.420;2023-04-24T12:52:22;77.07;;;41.10;;
11255;SDS011;5685;52.384;13.420;2023-04-24T12:55:27;76.77;;;41.07;;
11255;SDS011;5685;52.384;13.420;2023-04-24T12:58:29;76.87;;;41.00;;
11255;SDS011;5685;52.384;13.420;2023-04-24T13:01:32;77.13;;;41.17;;
11255;SDS011;5685;52.384;13.420;2023-04-24T13:04:34;75.70;;;40.67;;
11255;SDS011;5685;52.384;13.420;2023-04-24T13:07:37;76.37;;;40.90;;
11255;SDS011;5685;52.384;13.420;2023-04-24T13:10:41;76.60;;;41.13;;
11255;SDS011;5685;52.384;13.420;2023-04-24T13:13:44;76.60;;;41.00;;
11255;SDS011;5685;52.384;13.420;2023-04-24T13:16:46;77.07;;;41.27;;
11255;SDS011;5685;52.384;13.420;2023-04-24T13:19:49;76.10;;;40.80;;
11255;SDS011;5685;52.384;13.420;2023-04-24T13:22:52;76.03;;;41.17;;
11255;SDS011;5685;52.384;13.420;2023-04-24T13:25:56;75.90;;;41.10;;
11255;SDS011;5685;52.384;13.420;2023-04-24T13:28:59;76.30;;;41.17;;
11255;SDS011;5685;52.384;13.420;2023-04-24T13:32:01;77.20;;;41.27;;
11255;SDS011;5685;52.384;13.420;2023-04-24T13:35:04;77.20;;;41.20;;
11255;SDS011;5685;52.384;13.420;2023-04-24T13:38:07;77.60;;;41.40;;
11255;SDS011;5685;52.384;13.420;2023-04-24T13:41:11;78.00;;;41.43;;
11255;SDS011;5685;52.384;13.420;2023-04-24T13:44:14;78.00;;;41.40;;
11255;SDS011;5685;52.384;13.420;2023-04-24T13:47:17;77.50;;;41.30;;
11255;SDS011;5685;52.384;13.420;2023-04-24T13:50:20;78.00;;;41.37;;
11255;SDS011;5685;52.384;13.420;2023-04-24T13:53:22;78.10;;;41.40;;
11255;SDS011;5685;52.384;13.420;2023-04-24T13:56:26;77.67;;;41.30;;
11255;SDS011;5685;52.384;13.420;2023-04-24T13:59:29;78.47;;;41.20;;
11255;SDS011;5685;52.384;13.420;2023-04-24T14:02:31;78.43;;;40.90;;
11255;SDS011;5685;52.384;13.420;2023-04-24T14:05:34;78.80;;;41.47;;
11255;SDS011;5685;52.384;13.420;2023-04-24T14:08:36;78.47;;;41.10;;
11255;SDS011;5685;52.384;13.420;2023-04-24T14:11:41;78.67;;;41.17;;
11255;SDS011;5685;52.384;13.420;2023-04-24T14:14:43;79.40;;;41.37;;
11255;SDS011;5685;52.384;13.420;2023-04-24T14:17:46;79.03;;;41.27;;
11255;SDS011;5685;52.384;13.420;2023-04-24T14:20:49;78.93;;;41.07;;
11255;SDS011;5685;52.384;13.420;2023-04-24T14:23:51;79.43;;;41.33;;
11255;SDS011;5685;52.384;13.420;2023-04-24T14:26:55;79.57;;;41.17;;
11255;SDS011;5685;52.384;13.420;2023-04-24T14:29:58;79.63;;;41.13;;
11255;SDS011;5685;52.384;13.420;2023-04-24T14:33:00;80.07;;;41.43;;
11255;SDS011;5685;52.384;13.420;2023-04-24T14:36:03;80.00;;;41.30;;
11255;SDS011;5685;52.384;13.420;2023-04-24T14:39:06;78.77;;;41.10;;
11255;SDS011;5685;52.384;13.420;2023-04-24T14:42:10;79.70;;;41.40;;
11255;SDS011;5685;52.384;13.420;2023-04-24T14:45:13;79.43;;;41.40;;
11255;SDS011;5685;52.384;13.420;2023-04-24T14:48:16;80.30;;;41.60;;
11255;SDS011;5685;52.384;13.420;2023-04-24T14:51:18;79.50;;;41.20;;
11255;SDS011;5685;52.384;13.420;2023-04-24T14:54:21;79.80;;;41.40;;
11255;SDS011;5685;52.384;13.420;2023-04-24T14:57:26;79.07;;;41.27;;
11255;SDS011;5685;52.384;13.420;2023-04-24T15:00:29;78.63;;;41.20;;
11255;SDS011;5685;52.384;13.420;2023-04-24T15:03:31;78.67;;;41.20;;
11255;SDS011;5685;52.384;13.420;2023-04-24T15:06:34;79.47;;;41.57;;
11255;SDS011;5685;52.384;13.420;2023-04-24T15:09:36;79.43;;;41.47;;
11255;SDS011;5685;52.384;13.420;2023-04-24T15:12:41;79.27;;;41.17;;
11255;SDS011;5685;52.384;13.420;2023-04-24T15:15:43;80.53;;;42.33;;
11255;SDS011;5685;52.384;13.420;2023-04-24T15:18:48;80.47;;;41.70;;
11255;SDS011;5685;52.384;13.420;2023-04-24T15:21:50;80.03;;;41.60;;
11255;SDS011;5685;52.384;13.420;2023-04-24T15:24:53;80.60;;;41.77;;
11255;SDS011;5685;52.384;13.420;2023-04-24T15:27:57;80.07;;;41.57;;
11255;SDS011;5685;52.384;13.420;2023-04-24T15:31:00;80.47;;;41.60;;
11255;SDS011;5685;52.384;13.420;2023-04-24T15:34:03;80.23;;;41.60;;
11255;SDS011;5685;52.384;13.420;2023-04-24T15:37:05;80.93;;;41.80;;
11255;SDS011;5685;52.384;13.420;2023-04-24T15:40:08;81.07;;;41.60;;
11255;SDS011;5685;52.384;13.420;2023-04-24T15:43:14;81.30;;;41.80;;
11255;SDS011;5685;52.384;13.420;2023-04-24T15:46:17;81.70;;;41.83;;
11255;SDS011;5685;52.384;13.420;2023-04-24T15:49:19;81.77;;;41.73;;
11255;SDS011;5685;52.384;13.420;2023-04-24T15:52:22;81.57;;;41.67;;
11255;SDS011;5685;52.384;13.420;2023-04-24T15:55:25;81.17;;;41.67;;
11255;SDS011;5685;52.384;13.420;2023-04-24T15:58:29;81.43;;;41.70;;
11255;SDS011;5685;52.384;13.420;2023-04-24T16:01:32;80.90;;;41.70;;
11255;SDS011;5685;52.384;13.420;2023-04-24T16:04:35;80.63;;;41.50;;
11255;SDS011;5685;52.384;13.420;2023-04-24T16:07:37;80.90;;;41.57;;
11255;SDS011;5685;52.384;13.420;2023-04-24T16:10:40;81.10;;;41.70;;
11255;SDS011;5685;52.384;13.420;2023-04-24T16:13:44;81.20;;;41.70;;
11255;SDS011;5685;52.384;13.420;2023-04-24T16:16:47;82.13;;;41.83;;
11255;SDS011;5685;52.384;13.420;2023-04-24T16:19:50;81.60;;;41.93;;
11255;SDS011;5685;52.384;13.420;2023-04-24T16:22:52;81.50;;;41.87;;
11255;SDS011;5685;52.384;13.420;2023-04-24T16:25:55;81.90;;;41.97;;
11255;SDS011;5685;52.384;13.420;2023-04-24T16:28:59;81.37;;;41.77;;
11255;SDS011;5685;52.384;13.420;2023-04-24T16:32:02;81.20;;;41.80;;
11255;SDS011;5685;52.384;13.420;2023-04-24T16:35:05;81.70;;;41.73;;
11255;SDS011;5685;52.384;13.420;2023-04-24T16:38:08;81.53;;;41.80;;
11255;SDS011;5685;52.384;13.420;2023-04-24T16:41:11;81.13;;;41.50;;
11255;SDS011;5685;52.384;13.420;2023-04-24T16:44:15;81.37;;;41.77;;
11255;SDS011;5685;52.384;13.420;2023-04-24T16:47:18;81.87;;;41.90;;
11255;SDS011;5685;52.384;13.420;2023-04-24T16:50:20;81.90;;;41.93;;
11255;SDS011;5685;52.384;13.420;2023-04-24T16:53:23;81.73;;;41.90;;
11255;SDS011;5685;52.384;13.420;2023-04-24T16:56:26;81.73;;;41.67;;
11255;SDS011;5685;52.384;13.420;2023-04-24T16:59:30;81.70;;;41.63;;
11255;SDS011;5685;52.384;13.420;2023-04-24T17:02:33;82.00;;;41.80;;
11255;SDS011;5685;52.384;13.420;2023-04-24T17:05:36;82.10;;;41.80;;
11255;SDS011;5685;52.384;13.420;2023-04-24T17:08:39;81.33;;;41.37;;
11255;SDS011;5685;52.384;13.420;2023-04-24T17:11:41;81.90;;;41.90;;
11255;SDS011;5685;52.384;13.420;2023-04-24T17:14:45;81.90;;;41.80;;
11255;SDS011;5685;52.384;13.420;2023-04-24T17:17:48;80.97;;;41.30;;
11255;SDS011;5685;52.384;13.420;2023-04-24T17:20:50;81.47;;;41.67;;
11255;SDS011;5685;52.384;13.420;2023-04-24T17:23:53;81.67;;;41.90;;
11255;SDS011;5685;52.384;13.420;2023-04-24T17:26:55;81.63;;;41.83;;
11255;SDS011;5685;52.384;13.420;2023-04-24T17:30:01;81.60;;;41.70;;
11255;SDS011;5685;52.384;13.420;2023-04-24T17:33:03;81.37;;;41.90;;
11255;SDS011;5685;52.384;13.420;2023-04-24T17:36:06;81.87;;;42.00;;
11255;SDS011;5685;52.384;13.420;2023-04-24T17:39:09;81.17;;;41.70;;
11255;SDS011;5685;52.384;13.420;2023-04-24T17:42:11;81.90;;;41.90;;
11255;SDS011;5685;52.384;13.420;2023-04-24T17:45:15;81.50;;;41.90;;
11255;SDS011;5685;52.384;13.420;2023-04-24T17:48:18;81.60;;;41.90;;
11255;SDS011;5685;52.384;13.420;2023-04-24T17:51:21;81.83;;;41.97;;
11255;SDS011;5685;52.384;13.420;2023-04-24T17:54:23;81.13;;;41.90;;
11255;SDS011;5685;52.384;13.420;2023-04-24T17:57:26;80.97;;;41.73;;